sensor_id;sensor_type;location;lat;lon;timestamp;temperature;humidity
69589;SHT31;56792;50.644;17.984;2023-05-10T00:01:32;8.82;55.08
69589;SHT31;56792;50.644;17.984;2023-05-10T00:04:01;8.78;55.27
69589;SHT31;56792;50.644;17.984;2023-05-10T00:06:29;8.76;55.49
69589;SHT31;56792;50.644;17.984;2023-05-10T00:08:58;8.73;55.66
69589;SHT31;56792;50.644;17.984;2023-05-10T00:11:26;8.68;55.70
69589;SHT31;56792;50.644;17.984;2023-05-10T00:13:54;8.66;55.74
69589;SHT31;56792;50.644;17.984;2023-05-10T00:16:22;8.65;55.95
69589;SHT31;56792;50.644;17.984;2023-05-10T00:18:51;8.62;56.09
69589;SHT31;56792;50.644;17.984;2023-05-10T00:21:19;8.62;56.20
69589;SHT31;56792;50.644;17.984;2023-05-10T00:23:47;8.59;56.27
69589;SHT31;56792;50.644;17.984;2023-05-10T00:26:15;8.58;56.26
69589;SHT31;56792;50.644;17.984;2023-05-10T00:28:44;8.55;56.24
69589;SHT31;56792;50.644;17.984;2023-05-10T00:31:12;8.53;56.35
69589;SHT31;56792;50.644;17.984;2023-05-10T00:33:41;8.51;56.58
69589;SHT31;56792;50.644;17.984;2023-05-10T00:36:09;8.49;56.73
69589;SHT31;56792;50.644;17.984;2023-05-10T00:38:37;8.46;56.84
69589;SHT31;56792;50.644;17.984;2023-05-10T00:41:06;8.43;56.96
69589;SHT31;56792;50.644;17.984;2023-05-10T00:43:35;8.41;57.03
69589;SHT31;56792;50.644;17.984;2023-05-10T00:46:03;8.38;57.05
69589;SHT31;56792;50.644;17.984;2023-05-10T00:48:32;8.35;57.20
69589;SHT31;56792;50.644;17.984;2023-05-10T00:51:01;8.34;57.27
69589;SHT31;56792;50.644;17.984;2023-05-10T00:53:31;8.32;57.28
69589;SHT31;56792;50.644;17.984;2023-05-10T00:56:00;8.30;57.37
69589;SHT31;56792;50.644;17.984;2023-05-10T00:58:29;8.26;57.53
69589;SHT31;56792;50.644;17.984;2023-05-10T01:00:58;8.23;57.69
69589;SHT31;56792;50.644;17.984;2023-05-10T01:03:27;8.20;57.75
69589;SHT31;56792;50.644;17.984;2023-05-10T01:05:56;8.17;57.86
69589;SHT31;56792;50.644;17.984;2023-05-10T01:08:24;8.15;58.04
69589;SHT31;56792;50.644;17.984;2023-05-10T01:10:53;8.15;58.16
69589;SHT31;56792;50.644;17.984;2023-05-10T01:13:29;8.15;58.25
69589;SHT31;56792;50.644;17.984;2023-05-10T01:16:03;8.10;58.43
69589;SHT31;56792;50.644;17.984;2023-05-10T01:18:33;8.08;58.56
69589;SHT31;56792;50.644;17.984;2023-05-10T01:21:10;8.05;58.68
69589;SHT31;56792;50.644;17.984;2023-05-10T01:23:59;8.02;58.87
69589;SHT31;56792;50.644;17.984;2023-05-10T01:30:05;7.97;58.96
69589;SHT31;56792;50.644;17.984;2023-05-10T01:33:10;7.95;58.92
69589;SHT31;56792;50.644;17.984;2023-05-10T01:35:46;7.95;58.96
69589;SHT31;56792;50.644;17.984;2023-05-10T01:38:22;7.92;59.05
69589;SHT31;56792;50.644;17.984;2023-05-10T01:41:01;7.91;59.01
69589;SHT31;56792;50.644;17.984;2023-05-10T01:43:42;7.89;59.11
69589;SHT31;56792;50.644;17.984;2023-05-10T01:46:23;7.87;59.10
69589;SHT31;56792;50.644;17.984;2023-05-10T01:49:01;7.86;59.08
69589;SHT31;56792;50.644;17.984;2023-05-10T01:51:38;7.84;59.25
69589;SHT31;56792;50.644;17.984;2023-05-10T01:54:13;7.82;59.30
69589;SHT31;56792;50.644;17.984;2023-05-10T01:56:46;7.81;59.27
69589;SHT31;56792;50.644;17.984;2023-05-10T01:59:21;7.76;59.38
69589;SHT31;56792;50.644;17.984;2023-05-10T02:01:54;7.75;59.47
69589;SHT31;56792;50.644;17.984;2023-05-10T02:04:25;7.73;59.44
69589;SHT31;56792;50.644;17.984;2023-05-10T02:06:55;7.71;59.56
69589;SHT31;56792;50.644;17.984;2023-05-10T02:09:24;7.70;59.65
69589;SHT31;56792;50.644;17.984;2023-05-10T02:11:56;7.70;59.70
69589;SHT31;56792;50.644;17.984;2023-05-10T02:14:26;7.69;59.68
69589;SHT31;56792;50.644;17.984;2023-05-10T02:16:56;7.68;59.62
69589;SHT31;56792;50.644;17.984;2023-05-10T02:19:27;7.65;59.83
69589;SHT31;56792;50.644;17.984;2023-05-10T02:21:57;7.63;59.99
69589;SHT31;56792;50.644;17.984;2023-05-10T02:24:28;7.63;59.98
69589;SHT31;56792;50.644;17.984;2023-05-10T02:27:00;7.61;59.97
69589;SHT31;56792;50.644;17.984;2023-05-10T02:29:31;7.59;60.12
69589;SHT31;56792;50.644;17.984;2023-05-10T02:32:00;7.54;60.25
69589;SHT31;56792;50.644;17.984;2023-05-10T02:34:30;7.52;60.27
69589;SHT31;56792;50.644;17.984;2023-05-10T02:36:59;7.51;60.32
69589;SHT31;56792;50.644;17.984;2023-05-10T02:39:29;7.46;60.56
69589;SHT31;56792;50.644;17.984;2023-05-10T02:41:59;7.43;60.60
69589;SHT31;56792;50.644;17.984;2023-05-10T02:44:29;7.43;60.57
69589;SHT31;56792;50.644;17.984;2023-05-10T02:46:58;7.42;60.65
69589;SHT31;56792;50.644;17.984;2023-05-10T02:49:27;7.40;60.71
69589;SHT31;56792;50.644;17.984;2023-05-10T02:51:56;7.37;60.78
69589;SHT31;56792;50.644;17.984;2023-05-10T02:54:33;7.34;61.01
69589;SHT31;56792;50.644;17.984;2023-05-10T02:57:10;7.32;61.08
69589;SHT31;56792;50.644;17.984;2023-05-10T02:59:45;7.31;61.15
69589;SHT31;56792;50.644;17.984;2023-05-10T03:02:13;7.27;61.29
69589;SHT31;56792;50.644;17.984;2023-05-10T03:04:41;7.27;61.35
69589;SHT31;56792;50.644;17.984;2023-05-10T03:07:09;7.26;61.37
69589;SHT31;56792;50.644;17.984;2023-05-10T03:09:38;7.24;61.46
69589;SHT31;56792;50.644;17.984;2023-05-10T03:12:15;7.23;61.56
69589;SHT31;56792;50.644;17.984;2023-05-10T03:15:03;7.22;61.50
69589;SHT31;56792;50.644;17.984;2023-05-10T03:17:40;7.20;61.64
69589;SHT31;56792;50.644;17.984;2023-05-10T03:20:21;7.21;61.60
69589;SHT31;56792;50.644;17.984;2023-05-10T03:22:57;7.20;61.70
69589;SHT31;56792;50.644;17.984;2023-05-10T03:25:33;7.18;61.79
69589;SHT31;56792;50.644;17.984;2023-05-10T03:28:03;7.20;61.81
69589;SHT31;56792;50.644;17.984;2023-05-10T03:30:33;7.20;61.85
69589;SHT31;56792;50.644;17.984;2023-05-10T03:33:04;7.21;61.89
69589;SHT31;56792;50.644;17.984;2023-05-10T03:35:34;7.21;61.95
69589;SHT31;56792;50.644;17.984;2023-05-10T03:38:03;7.23;61.90
69589;SHT31;56792;50.644;17.984;2023-05-10T03:40:31;7.24;61.94
69589;SHT31;56792;50.644;17.984;2023-05-10T03:42:59;7.25;61.96
69589;SHT31;56792;50.644;17.984;2023-05-10T03:45:28;7.28;62.04
69589;SHT31;56792;50.644;17.984;2023-05-10T03:47:57;7.29;62.02
69589;SHT31;56792;50.644;17.984;2023-05-10T03:50:25;7.31;62.05
69589;SHT31;56792;50.644;17.984;2023-05-10T03:52:54;7.32;62.16
69589;SHT31;56792;50.644;17.984;2023-05-10T03:55:23;7.34;62.12
69589;SHT31;56792;50.644;17.984;2023-05-10T03:57:51;7.37;62.01
69589;SHT31;56792;50.644;17.984;2023-05-10T04:00:21;7.40;61.96
69589;SHT31;56792;50.644;17.984;2023-05-10T04:02:50;7.42;62.05
69589;SHT31;56792;50.644;17.984;2023-05-10T04:05:19;7.45;62.02
69589;SHT31;56792;50.644;17.984;2023-05-10T04:07:47;7.48;61.85
69589;SHT31;56792;50.644;17.984;2023-05-10T04:10:17;7.53;61.75
69589;SHT31;56792;50.644;17.984;2023-05-10T04:12:45;7.57;61.78
69589;SHT31;56792;50.644;17.984;2023-05-10T04:15:13;7.60;61.71
69589;SHT31;56792;50.644;17.984;2023-05-10T04:17:42;7.63;61.82
69589;SHT31;56792;50.644;17.984;2023-05-10T04:20:11;7.67;61.69
69589;SHT31;56792;50.644;17.984;2023-05-10T04:22:40;7.72;61.68
69589;SHT31;56792;50.644;17.984;2023-05-10T04:25:09;7.78;61.63
69589;SHT31;56792;50.644;17.984;2023-05-10T04:27:37;7.82;61.72
69589;SHT31;56792;50.644;17.984;2023-05-10T04:30:07;7.89;61.60
69589;SHT31;56792;50.644;17.984;2023-05-10T04:32:36;7.94;61.69
69589;SHT31;56792;50.644;17.984;2023-05-10T04:35:05;8.00;61.72
69589;SHT31;56792;50.644;17.984;2023-05-10T04:37:35;8.06;61.49
69589;SHT31;56792;50.644;17.984;2023-05-10T04:40:05;8.14;61.23
69589;SHT31;56792;50.644;17.984;2023-05-10T04:42:36;8.22;61.24
69589;SHT31;56792;50.644;17.984;2023-05-10T04:45:07;8.30;61.03
69589;SHT31;56792;50.644;17.984;2023-05-10T04:47:37;8.39;61.07
69589;SHT31;56792;50.644;17.984;2023-05-10T04:50:06;8.46;60.95
69589;SHT31;56792;50.644;17.984;2023-05-10T04:52:35;8.54;60.81
69589;SHT31;56792;50.644;17.984;2023-05-10T04:55:04;8.61;60.81
69589;SHT31;56792;50.644;17.984;2023-05-10T04:57:35;8.69;60.56
69589;SHT31;56792;50.644;17.984;2023-05-10T05:00:04;8.77;60.44
69589;SHT31;56792;50.644;17.984;2023-05-10T05:02:35;8.85;60.27
69589;SHT31;56792;50.644;17.984;2023-05-10T05:05:03;8.93;60.39
69589;SHT31;56792;50.644;17.984;2023-05-10T05:07:33;9.03;60.27
69589;SHT31;56792;50.644;17.984;2023-05-10T05:10:02;9.11;60.29
69589;SHT31;56792;50.644;17.984;2023-05-10T05:12:31;9.21;60.10
69589;SHT31;56792;50.644;17.984;2023-05-10T05:15:00;9.30;59.64
69589;SHT31;56792;50.644;17.984;2023-05-10T05:17:30;9.42;59.75
69589;SHT31;56792;50.644;17.984;2023-05-10T05:19:58;9.50;59.57
69589;SHT31;56792;50.644;17.984;2023-05-10T05:22:26;9.58;59.46
69589;SHT31;56792;50.644;17.984;2023-05-10T05:24:55;9.66;59.55
69589;SHT31;56792;50.644;17.984;2023-05-10T05:27:24;9.77;59.19
69589;SHT31;56792;50.644;17.984;2023-05-10T05:29:53;9.85;59.22
69589;SHT31;56792;50.644;17.984;2023-05-10T05:32:22;9.94;59.03
69589;SHT31;56792;50.644;17.984;2023-05-10T05:34:51;10.06;58.78
69589;SHT31;56792;50.644;17.984;2023-05-10T05:37:20;10.17;58.79
69589;SHT31;56792;50.644;17.984;2023-05-10T05:39:48;10.28;58.84
69589;SHT31;56792;50.644;17.984;2023-05-10T05:42:17;10.41;58.66
69589;SHT31;56792;50.644;17.984;2023-05-10T05:44:45;10.53;58.19
69589;SHT31;56792;50.644;17.984;2023-05-10T05:47:13;10.67;57.82
69589;SHT31;56792;50.644;17.984;2023-05-10T05:49:41;10.81;57.81
69589;SHT31;56792;50.644;17.984;2023-05-10T05:52:11;10.95;58.23
69589;SHT31;56792;50.644;17.984;2023-05-10T05:54:39;11.11;58.14
69589;SHT31;56792;50.644;17.984;2023-05-10T05:57:08;11.27;57.22
69589;SHT31;56792;50.644;17.984;2023-05-10T05:59:36;11.42;56.74
69589;SHT31;56792;50.644;17.984;2023-05-10T06:02:07;11.57;57.22
69589;SHT31;56792;50.644;17.984;2023-05-10T06:04:36;11.73;56.68
69589;SHT31;56792;50.644;17.984;2023-05-10T06:07:04;11.89;56.06
69589;SHT31;56792;50.644;17.984;2023-05-10T06:09:32;12.10;55.51
69589;SHT31;56792;50.644;17.984;2023-05-10T06:12:01;12.28;54.81
69589;SHT31;56792;50.644;17.984;2023-05-10T06:14:29;12.49;54.37
69589;SHT31;56792;50.644;17.984;2023-05-10T06:16:57;12.72;54.05
69589;SHT31;56792;50.644;17.984;2023-05-10T06:19:26;12.93;53.90
69589;SHT31;56792;50.644;17.984;2023-05-10T06:21:54;13.14;53.36
69589;SHT31;56792;50.644;17.984;2023-05-10T06:24:22;13.36;52.70
69589;SHT31;56792;50.644;17.984;2023-05-10T06:26:51;13.57;52.46
69589;SHT31;56792;50.644;17.984;2023-05-10T06:29:19;13.77;51.21
69589;SHT31;56792;50.644;17.984;2023-05-10T06:31:48;13.97;50.76
69589;SHT31;56792;50.644;17.984;2023-05-10T06:34:16;14.17;50.65
69589;SHT31;56792;50.644;17.984;2023-05-10T06:36:45;14.43;50.55
69589;SHT31;56792;50.644;17.984;2023-05-10T06:39:13;14.64;50.53
69589;SHT31;56792;50.644;17.984;2023-05-10T06:41:42;14.91;50.60
69589;SHT31;56792;50.644;17.984;2023-05-10T06:44:10;15.16;49.35
69589;SHT31;56792;50.644;17.984;2023-05-10T06:46:39;15.40;49.39
69589;SHT31;56792;50.644;17.984;2023-05-10T06:49:07;15.64;49.50
69589;SHT31;56792;50.644;17.984;2023-05-10T06:51:35;15.89;48.81
69589;SHT31;56792;50.644;17.984;2023-05-10T06:54:04;16.09;47.78
69589;SHT31;56792;50.644;17.984;2023-05-10T06:56:32;16.26;46.81
69589;SHT31;56792;50.644;17.984;2023-05-10T06:59:01;16.41;46.58
69589;SHT31;56792;50.644;17.984;2023-05-10T07:01:29;16.61;46.44
69589;SHT31;56792;50.644;17.984;2023-05-10T07:03:57;16.83;45.73
69589;SHT31;56792;50.644;17.984;2023-05-10T07:06:25;17.00;44.94
69589;SHT31;56792;50.644;17.984;2023-05-10T07:08:54;17.18;45.33
69589;SHT31;56792;50.644;17.984;2023-05-10T07:11:23;17.39;44.44
69589;SHT31;56792;50.644;17.984;2023-05-10T07:13:51;17.50;42.88
69589;SHT31;56792;50.644;17.984;2023-05-10T07:16:19;17.54;43.02
69589;SHT31;56792;50.644;17.984;2023-05-10T07:18:47;17.66;43.23
69589;SHT31;56792;50.644;17.984;2023-05-10T07:21:16;17.83;43.51
69589;SHT31;56792;50.644;17.984;2023-05-10T07:23:44;18.05;43.41
69589;SHT31;56792;50.644;17.984;2023-05-10T07:26:13;18.18;41.82
69589;SHT31;56792;50.644;17.984;2023-05-10T07:28:41;18.22;41.15
69589;SHT31;56792;50.644;17.984;2023-05-10T07:31:09;18.28;41.69
69589;SHT31;56792;50.644;17.984;2023-05-10T07:33:38;18.42;42.06
69589;SHT31;56792;50.644;17.984;2023-05-10T07:36:06;18.57;41.37
69589;SHT31;56792;50.644;17.984;2023-05-10T07:38:35;18.68;40.81
69589;SHT31;56792;50.644;17.984;2023-05-10T07:41:03;18.79;41.05
69589;SHT31;56792;50.644;17.984;2023-05-10T07:43:31;18.85;40.11
69589;SHT31;56792;50.644;17.984;2023-05-10T07:45:59;18.88;39.92
69589;SHT31;56792;50.644;17.984;2023-05-10T07:48:28;18.99;40.32
69589;SHT31;56792;50.644;17.984;2023-05-10T07:50:56;19.15;39.86
69589;SHT31;56792;50.644;17.984;2023-05-10T07:53:25;19.22;39.39
69589;SHT31;56792;50.644;17.984;2023-05-10T07:55:54;19.31;39.80
69589;SHT31;56792;50.644;17.984;2023-05-10T07:58:24;19.38;39.28
69589;SHT31;56792;50.644;17.984;2023-05-10T08:00:53;19.51;39.66
69589;SHT31;56792;50.644;17.984;2023-05-10T08:03:22;19.60;39.14
69589;SHT31;56792;50.644;17.984;2023-05-10T08:05:50;19.71;39.29
69589;SHT31;56792;50.644;17.984;2023-05-10T08:08:18;19.85;39.48
69589;SHT31;56792;50.644;17.984;2023-05-10T08:10:48;19.95;38.69
69589;SHT31;56792;50.644;17.984;2023-05-10T08:13:16;20.02;38.43
69589;SHT31;56792;50.644;17.984;2023-05-10T08:15:45;20.11;38.04
69589;SHT31;56792;50.644;17.984;2023-05-10T08:18:13;20.13;38.02
69589;SHT31;56792;50.644;17.984;2023-05-10T08:20:41;20.19;38.08
69589;SHT31;56792;50.644;17.984;2023-05-10T08:23:10;20.32;38.14
69589;SHT31;56792;50.644;17.984;2023-05-10T08:25:39;20.47;37.71
69589;SHT31;56792;50.644;17.984;2023-05-10T08:28:07;20.62;37.96
69589;SHT31;56792;50.644;17.984;2023-05-10T08:30:35;20.78;38.26
69589;SHT31;56792;50.644;17.984;2023-05-10T08:33:03;20.95;37.76
69589;SHT31;56792;50.644;17.984;2023-05-10T08:35:32;21.04;36.67
69589;SHT31;56792;50.644;17.984;2023-05-10T08:38:00;21.04;36.81
69589;SHT31;56792;50.644;17.984;2023-05-10T08:40:29;21.16;37.06
69589;SHT31;56792;50.644;17.984;2023-05-10T08:42:58;21.36;36.67
69589;SHT31;56792;50.644;17.984;2023-05-10T08:45:33;21.51;35.91
69589;SHT31;56792;50.644;17.984;2023-05-10T08:48:05;21.49;35.90
69589;SHT31;56792;50.644;17.984;2023-05-10T08:50:37;21.55;36.17
69589;SHT31;56792;50.644;17.984;2023-05-10T08:53:10;21.76;35.30
69589;SHT31;56792;50.644;17.984;2023-05-10T08:55:41;21.94;35.93
69589;SHT31;56792;50.644;17.984;2023-05-10T08:58:09;22.19;35.36
69589;SHT31;56792;50.644;17.984;2023-05-10T09:00:37;22.20;34.63
69589;SHT31;56792;50.644;17.984;2023-05-10T09:03:06;22.27;34.53
69589;SHT31;56792;50.644;17.984;2023-05-10T09:05:35;22.31;34.71
69589;SHT31;56792;50.644;17.984;2023-05-10T09:08:04;22.41;34.70
69589;SHT31;56792;50.644;17.984;2023-05-10T09:10:35;22.55;34.24
69589;SHT31;56792;50.644;17.984;2023-05-10T09:13:04;22.76;34.45
69589;SHT31;56792;50.644;17.984;2023-05-10T09:15:35;22.92;33.01
69589;SHT31;56792;50.644;17.984;2023-05-10T09:18:03;22.88;33.09
69589;SHT31;56792;50.644;17.984;2023-05-10T09:20:32;22.83;33.32
69589;SHT31;56792;50.644;17.984;2023-05-10T09:23:00;23.33;33.17
69589;SHT31;56792;50.644;17.984;2023-05-10T09:25:28;23.79;32.45
69589;SHT31;56792;50.644;17.984;2023-05-10T09:27:59;24.05;32.39
69589;SHT31;56792;50.644;17.984;2023-05-10T09:30:28;24.28;32.26
69589;SHT31;56792;50.644;17.984;2023-05-10T09:32:57;24.35;32.09
69589;SHT31;56792;50.644;17.984;2023-05-10T09:35:27;24.46;31.58
69589;SHT31;56792;50.644;17.984;2023-05-10T09:38:00;24.54;31.00
69589;SHT31;56792;50.644;17.984;2023-05-10T09:40:31;24.32;31.09
69589;SHT31;56792;50.644;17.984;2023-05-10T09:43:00;24.27;31.30
69589;SHT31;56792;50.644;17.984;2023-05-10T09:45:33;24.38;30.80
69589;SHT31;56792;50.644;17.984;2023-05-10T09:48:02;24.45;31.46
69589;SHT31;56792;50.644;17.984;2023-05-10T09:50:32;24.57;31.55
69589;SHT31;56792;50.644;17.984;2023-05-10T09:53:01;24.53;30.84
69589;SHT31;56792;50.644;17.984;2023-05-10T09:55:38;24.61;31.09
69589;SHT31;56792;50.644;17.984;2023-05-10T09:58:10;25.04;30.75
69589;SHT31;56792;50.644;17.984;2023-05-10T10:00:40;25.26;30.54
69589;SHT31;56792;50.644;17.984;2023-05-10T10:03:12;25.59;29.57
69589;SHT31;56792;50.644;17.984;2023-05-10T10:05:43;25.47;29.20
69589;SHT31;56792;50.644;17.984;2023-05-10T10:08:13;25.35;29.43
69589;SHT31;56792;50.644;17.984;2023-05-10T10:10:42;25.18;29.87
69589;SHT31;56792;50.644;17.984;2023-05-10T10:13:12;25.27;30.05
69589;SHT31;56792;50.644;17.984;2023-05-10T10:15:41;25.92;29.41
69589;SHT31;56792;50.644;17.984;2023-05-10T10:18:12;26.43;28.71
69589;SHT31;56792;50.644;17.984;2023-05-10T10:20:41;26.35;28.47
69589;SHT31;56792;50.644;17.984;2023-05-10T10:23:09;27.16;28.29
69589;SHT31;56792;50.644;17.984;2023-05-10T10:25:38;28.59;27.76
69589;SHT31;56792;50.644;17.984;2023-05-10T10:28:09;29.73;26.19
69589;SHT31;56792;50.644;17.984;2023-05-10T10:30:53;30.17;25.50
69589;SHT31;56792;50.644;17.984;2023-05-10T10:33:33;31.78;24.71
69589;SHT31;56792;50.644;17.984;2023-05-10T10:36:25;34.01;21.68
69589;SHT31;56792;50.644;17.984;2023-05-10T10:38:59;35.40;20.69
69589;SHT31;56792;50.644;17.984;2023-05-10T10:41:35;36.97;20.24
69589;SHT31;56792;50.644;17.984;2023-05-10T10:47:10;37.03;18.79
69589;SHT31;56792;50.644;17.984;2023-05-10T10:49:51;35.89;19.12
69589;SHT31;56792;50.644;17.984;2023-05-10T10:52:33;35.83;18.86
69589;SHT31;56792;50.644;17.984;2023-05-10T10:55:03;33.78;19.97
69589;SHT31;56792;50.644;17.984;2023-05-10T10:57:43;33.97;20.01
69589;SHT31;56792;50.644;17.984;2023-05-10T11:00:21;34.18;19.35
69589;SHT31;56792;50.644;17.984;2023-05-10T11:02:56;32.10;20.95
69589;SHT31;56792;50.644;17.984;2023-05-10T11:08:18;30.65;22.32
69589;SHT31;56792;50.644;17.984;2023-05-10T11:11:03;32.63;21.81
69589;SHT31;56792;50.644;17.984;2023-05-10T11:13:34;34.47;20.40
69589;SHT31;56792;50.644;17.984;2023-05-10T11:16:16;33.25;20.40
69589;SHT31;56792;50.644;17.984;2023-05-10T11:18:57;31.32;21.46
69589;SHT31;56792;50.644;17.984;2023-05-10T11:21:28;31.42;21.89
69589;SHT31;56792;50.644;17.984;2023-05-10T11:23:57;33.99;20.42
69589;SHT31;56792;50.644;17.984;2023-05-10T11:26:30;35.34;19.95
69589;SHT31;56792;50.644;17.984;2023-05-10T11:29:01;35.27;18.97
69589;SHT31;56792;50.644;17.984;2023-05-10T11:31:30;32.74;20.66
69589;SHT31;56792;50.644;17.984;2023-05-10T11:33:59;31.02;21.67
69589;SHT31;56792;50.644;17.984;2023-05-10T11:36:28;29.63;22.56
69589;SHT31;56792;50.644;17.984;2023-05-10T11:39:00;28.52;23.41
69589;SHT31;56792;50.644;17.984;2023-05-10T11:41:29;27.58;24.22
69589;SHT31;56792;50.644;17.984;2023-05-10T11:43:58;26.76;25.00
69589;SHT31;56792;50.644;17.984;2023-05-10T11:46:28;26.19;25.46
69589;SHT31;56792;50.644;17.984;2023-05-10T11:48:57;25.89;26.29
69589;SHT31;56792;50.644;17.984;2023-05-10T11:51:32;25.39;26.54
69589;SHT31;56792;50.644;17.984;2023-05-10T11:54:05;25.07;27.07
69589;SHT31;56792;50.644;17.984;2023-05-10T11:56:34;24.81;27.51
69589;SHT31;56792;50.644;17.984;2023-05-10T11:59:04;24.76;27.90
69589;SHT31;56792;50.644;17.984;2023-05-10T12:01:33;24.68;27.72
69589;SHT31;56792;50.644;17.984;2023-05-10T12:04:02;24.42;28.21
69589;SHT31;56792;50.644;17.984;2023-05-10T12:06:31;24.25;28.53
69589;SHT31;56792;50.644;17.984;2023-05-10T12:09:06;24.59;28.18
69589;SHT31;56792;50.644;17.984;2023-05-10T12:11:37;25.09;27.48
69589;SHT31;56792;50.644;17.984;2023-05-10T12:14:07;24.54;27.97
69589;SHT31;56792;50.644;17.984;2023-05-10T12:16:36;24.73;28.11
69589;SHT31;56792;50.644;17.984;2023-05-10T12:19:04;24.55;27.82
69589;SHT31;56792;50.644;17.984;2023-05-10T12:21:32;24.19;28.19
69589;SHT31;56792;50.644;17.984;2023-05-10T12:24:02;24.05;28.63
69589;SHT31;56792;50.644;17.984;2023-05-10T12:26:31;24.09;28.58
69589;SHT31;56792;50.644;17.984;2023-05-10T12:29:14;24.97;28.24
69589;SHT31;56792;50.644;17.984;2023-05-10T12:31:50;27.66;26.75
69589;SHT31;56792;50.644;17.984;2023-05-10T12:34:24;30.35;24.80
69589;SHT31;56792;50.644;17.984;2023-05-10T12:36:58;29.69;24.54
69589;SHT31;56792;50.644;17.984;2023-05-10T12:39:37;28.89;23.93
69589;SHT31;56792;50.644;17.984;2023-05-10T12:42:07;27.83;24.23
69589;SHT31;56792;50.644;17.984;2023-05-10T12:44:36;27.37;24.90
69589;SHT31;56792;50.644;17.984;2023-05-10T12:47:04;29.15;24.49
69589;SHT31;56792;50.644;17.984;2023-05-10T12:49:33;31.35;23.43
69589;SHT31;56792;50.644;17.984;2023-05-10T12:52:01;34.07;21.05
69589;SHT31;56792;50.644;17.984;2023-05-10T12:54:29;35.95;19.92
69589;SHT31;56792;50.644;17.984;2023-05-10T12:56:57;37.58;18.97
69589;SHT31;56792;50.644;17.984;2023-05-10T12:59:26;38.77;17.61
69589;SHT31;56792;50.644;17.984;2023-05-10T13:01:54;39.67;16.64
69589;SHT31;56792;50.644;17.984;2023-05-10T13:04:23;40.21;15.96
69589;SHT31;56792;50.644;17.984;2023-05-10T13:06:51;40.95;15.98
69589;SHT31;56792;50.644;17.984;2023-05-10T13:09:24;39.99;16.21
69589;SHT31;56792;50.644;17.984;2023-05-10T13:11:52;37.58;16.49
69589;SHT31;56792;50.644;17.984;2023-05-10T13:14:21;35.35;17.64
69589;SHT31;56792;50.644;17.984;2023-05-10T13:16:49;33.45;18.31
69589;SHT31;56792;50.644;17.984;2023-05-10T13:19:17;32.62;19.06
69589;SHT31;56792;50.644;17.984;2023-05-10T13:21:46;32.13;19.79
69589;SHT31;56792;50.644;17.984;2023-05-10T13:24:14;31.34;20.16
69589;SHT31;56792;50.644;17.984;2023-05-10T13:26:43;30.95;21.19
69589;SHT31;56792;50.644;17.984;2023-05-10T13:29:11;30.47;21.18
69589;SHT31;56792;50.644;17.984;2023-05-10T13:31:39;29.65;21.46
69589;SHT31;56792;50.644;17.984;2023-05-10T13:34:08;29.08;22.20
69589;SHT31;56792;50.644;17.984;2023-05-10T13:36:36;28.62;22.45
69589;SHT31;56792;50.644;17.984;2023-05-10T13:39:04;28.11;22.85
69589;SHT31;56792;50.644;17.984;2023-05-10T13:41:33;27.61;23.20
69589;SHT31;56792;50.644;17.984;2023-05-10T13:44:02;27.17;23.65
69589;SHT31;56792;50.644;17.984;2023-05-10T13:46:30;26.85;24.42
69589;SHT31;56792;50.644;17.984;2023-05-10T13:48:59;26.64;24.76
69589;SHT31;56792;50.644;17.984;2023-05-10T13:51:27;26.28;24.78
69589;SHT31;56792;50.644;17.984;2023-05-10T13:53:57;25.70;25.03
69589;SHT31;56792;50.644;17.984;2023-05-10T13:56:25;25.20;25.69
69589;SHT31;56792;50.644;17.984;2023-05-10T13:58:54;24.93;26.39
69589;SHT31;56792;50.644;17.984;2023-05-10T14:01:23;24.84;26.83
69589;SHT31;56792;50.644;17.984;2023-05-10T14:03:51;24.91;26.86
69589;SHT31;56792;50.644;17.984;2023-05-10T14:06:20;24.98;26.65
69589;SHT31;56792;50.644;17.984;2023-05-10T14:08:48;25.11;28.11
69589;SHT31;56792;50.644;17.984;2023-05-10T14:11:16;25.06;26.79
69589;SHT31;56792;50.644;17.984;2023-05-10T14:13:45;24.96;26.90
69589;SHT31;56792;50.644;17.984;2023-05-10T14:16:13;24.85;26.62
69589;SHT31;56792;50.644;17.984;2023-05-10T14:18:42;24.77;26.79
69589;SHT31;56792;50.644;17.984;2023-05-10T14:21:10;24.64;26.87
69589;SHT31;56792;50.644;17.984;2023-05-10T14:23:38;24.42;27.13
69589;SHT31;56792;50.644;17.984;2023-05-10T14:26:07;24.20;27.44
69589;SHT31;56792;50.644;17.984;2023-05-10T14:28:35;24.11;27.78
69589;SHT31;56792;50.644;17.984;2023-05-10T14:31:04;24.02;27.86
69589;SHT31;56792;50.644;17.984;2023-05-10T14:33:32;23.96;28.55
69589;SHT31;56792;50.644;17.984;2023-05-10T14:36:00;23.89;29.09
69589;SHT31;56792;50.644;17.984;2023-05-10T14:38:29;23.93;29.13
69589;SHT31;56792;50.644;17.984;2023-05-10T14:40:58;23.95;28.56
69589;SHT31;56792;50.644;17.984;2023-05-10T14:43:27;23.77;28.31
69589;SHT31;56792;50.644;17.984;2023-05-10T14:45:56;23.53;28.24
69589;SHT31;56792;50.644;17.984;2023-05-10T14:48:25;23.36;28.63
69589;SHT31;56792;50.644;17.984;2023-05-10T14:50:53;23.29;28.69
69589;SHT31;56792;50.644;17.984;2023-05-10T14:53:21;23.19;28.96
69589;SHT31;56792;50.644;17.984;2023-05-10T14:55:50;23.12;29.33
69589;SHT31;56792;50.644;17.984;2023-05-10T14:58:18;23.11;29.81
69589;SHT31;56792;50.644;17.984;2023-05-10T15:00:46;23.09;29.53
69589;SHT31;56792;50.644;17.984;2023-05-10T15:03:14;23.08;29.43
69589;SHT31;56792;50.644;17.984;2023-05-10T15:05:43;23.11;29.13
69589;SHT31;56792;50.644;17.984;2023-05-10T15:08:11;23.13;29.44
69589;SHT31;56792;50.644;17.984;2023-05-10T15:10:39;23.10;29.76
69589;SHT31;56792;50.644;17.984;2023-05-10T15:13:08;23.01;30.08
69589;SHT31;56792;50.644;17.984;2023-05-10T15:15:36;22.88;30.50
69589;SHT31;56792;50.644;17.984;2023-05-10T15:18:04;22.87;30.24
69589;SHT31;56792;50.644;17.984;2023-05-10T15:20:33;22.85;30.98
69589;SHT31;56792;50.644;17.984;2023-05-10T15:23:01;22.88;30.54
69589;SHT31;56792;50.644;17.984;2023-05-10T15:25:29;22.93;30.74
69589;SHT31;56792;50.644;17.984;2023-05-10T15:28:00;23.01;30.54
69589;SHT31;56792;50.644;17.984;2023-05-10T15:30:29;23.00;30.11
69589;SHT31;56792;50.644;17.984;2023-05-10T15:32:57;23.02;30.45
69589;SHT31;56792;50.644;17.984;2023-05-10T15:35:26;23.02;30.35
69589;SHT31;56792;50.644;17.984;2023-05-10T15:37:54;22.88;30.03
69589;SHT31;56792;50.644;17.984;2023-05-10T15:40:22;22.67;30.17
69589;SHT31;56792;50.644;17.984;2023-05-10T15:42:51;22.49;30.34
69589;SHT31;56792;50.644;17.984;2023-05-10T15:45:19;22.35;30.45
69589;SHT31;56792;50.644;17.984;2023-05-10T15:47:47;22.23;30.68